Time;durP1;ratioP1;P1;durP2;ratioP2;P2;SDS_P1;SDS_P2;PMS_P1;PMS_P2;Temp;Humidity;BMP_temperature;BMP_pressure;BME280_temperature;BME280_humidity;BME280_pressure;Samples;Min_cycle;Max_cycle;Signal;HPM_P1;HPM_P2
2022/11/26 00:00:50;;;;;;;34.10;13.17;;;6.70;99.90;;;;;;5055906;28;20206;-86
2022/11/26 00:03:18;;;;;;;26.10;12.67;;;6.70;99.90;;;;;;5055631;28;20207;-85
2022/11/26 00:05:49;;;;;;;28.30;13.57;;;6.70;99.90;;;;;;5054964;28;20202;-85
2022/11/26 00:08:20;;;;;;;30.10;13.00;;;6.70;99.90;;;;;;5054217;28;20207;-85
2022/11/26 00:10:49;;;;;;;34.13;13.13;;;6.70;99.90;;;;;;5055340;28;20205;-85
2022/11/26 00:13:20;;;;;;;34.43;12.50;;;6.70;99.90;;;;;;5055860;28;20199;-85
2022/11/26 00:15:47;;;;;;;30.67;13.20;;;6.60;99.90;;;;;;5054470;28;20265;-86
2022/11/26 00:18:15;;;;;;;31.73;12.83;;;6.60;99.90;;;;;;5038464;28;20650;-84
2022/11/26 00:20:42;;;;;;;24.80;13.03;;;6.60;99.90;;;;;;5058981;28;20203;-84
2022/11/26 00:23:19;;;;;;;26.33;12.83;;;6.60;99.90;;;;;;5061059;28;20205;-84
2022/11/26 00:25:49;;;;;;;39.03;14.27;;;6.60;99.90;;;;;;5061468;28;20198;-85
2022/11/26 00:28:24;;;;;;;25.00;13.10;;;6.50;99.90;;;;;;5062259;28;20203;-85
2022/11/26 00:30:51;;;;;;;31.20;12.47;;;6.50;99.90;;;;;;5061540;28;20202;-85
2022/11/26 00:33:18;;;;;;;29.90;12.13;;;6.50;99.90;;;;;;5060609;28;20260;-86
2022/11/26 00:35:46;;;;;;;27.70;13.00;;;6.50;99.90;;;;;;5062110;28;20214;-84
2022/11/26 00:38:17;;;;;;;25.47;12.77;;;6.50;99.90;;;;;;5056247;28;20264;-85
2022/11/26 00:40:44;;;;;;;30.43;14.07;;;6.50;99.90;;;;;;5055028;28;20203;-86
2022/11/26 00:43:12;;;;;;;31.70;13.20;;;6.40;99.90;;;;;;5054162;28;20199;-86
2022/11/26 00:45:39;;;;;;;30.97;13.10;;;6.40;99.90;;;;;;5054181;28;20207;-86
2022/11/26 00:48:06;;;;;;;31.47;14.03;;;6.40;99.90;;;;;;5053859;28;20210;-85
2022/11/26 00:50:37;;;;;;;26.13;12.40;;;6.30;99.90;;;;;;5052899;28;20221;-86
2022/11/26 00:53:05;;;;;;;28.03;12.33;;;6.30;99.90;;;;;;5054090;28;20232;-86
2022/11/26 00:55:35;;;;;;;25.93;12.67;;;6.20;99.90;;;;;;5054807;28;20234;-86
2022/11/26 00:58:03;;;;;;;24.37;11.83;;;6.20;99.90;;;;;;5054889;28;20330;-86
2022/11/26 01:00:32;;;;;;;22.93;13.17;;;6.30;99.90;;;;;;5053214;28;20214;-86
2022/11/26 01:03:01;;;;;;;35.70;13.93;;;6.30;99.90;;;;;;5054264;28;20201;-86
2022/11/26 01:05:32;;;;;;;28.83;13.00;;;6.20;99.90;;;;;;5053656;28;20204;-86
2022/11/26 01:08:02;;;;;;;29.52;13.63;;;6.20;99.90;;;;;;5052465;28;20406;-85
2022/11/26 01:10:31;;;;;;;27.77;12.83;;;6.10;99.90;;;;;;5054118;28;20260;-86
2022/11/26 01:12:59;;;;;;;25.33;11.83;;;6.10;99.90;;;;;;5054281;28;20202;-84
2022/11/26 01:15:27;;;;;;;29.83;12.43;;;6.00;99.90;;;;;;5053901;28;20233;-84
2022/11/26 01:17:54;;;;;;;27.97;12.20;;;6.00;99.90;;;;;;5053657;28;20194;-84
2022/11/26 01:20:25;;;;;;;25.83;11.67;;;6.00;99.90;;;;;;5054399;28;20199;-85
2022/11/26 01:22:53;;;;;;;26.70;12.07;;;6.00;99.90;;;;;;5054076;28;20206;-85
2022/11/26 01:25:21;;;;;;;28.23;12.03;;;5.90;99.90;;;;;;5052959;28;20576;-85
2022/11/26 01:27:47;;;;;;;31.07;12.20;;;6.00;99.90;;;;;;5053261;28;20677;-86
2022/11/26 01:30:19;;;;;;;30.60;12.10;;;5.90;99.90;;;;;;5053481;28;20203;-85
2022/11/26 01:32:46;;;;;;;28.53;11.63;;;6.00;99.90;;;;;;5052992;28;20202;-86
2022/11/26 01:35:13;;;;;;;24.23;11.23;;;6.00;99.90;;;;;;5053609;28;20234;-84
2022/11/26 01:37:41;;;;;;;26.93;11.93;;;6.00;99.90;;;;;;5053935;28;20564;-84
2022/11/26 01:40:43;;;;;;;29.73;12.00;;;5.90;99.90;;;;;;5053967;28;20198;-85
2022/11/26 01:43:16;;;;;;;41.60;12.53;;;5.90;99.90;;;;;;5044181;28;20209;-87
2022/11/26 01:45:45;;;;;;;31.63;11.97;;;5.90;99.90;;;;;;5053427;28;20209;-86
2022/11/26 01:48:26;;;;;;;29.63;11.47;;;5.90;99.90;;;;;;5053844;28;20211;-85
2022/11/26 01:50:57;;;;;;;29.77;11.80;;;5.90;99.90;;;;;;5051600;28;20697;-85
2022/11/26 01:53:33;;;;;;;31.20;11.27;;;5.90;99.90;;;;;;5053706;28;20313;-85
2022/11/26 01:56:18;;;;;;;28.00;10.70;;;6.00;99.90;;;;;;5172802;27;20538;-85
2022/11/26 01:58:48;;;;;;;33.20;9.97;;;6.00;99.90;;;;;;5172916;27;20606;-84
2022/11/26 02:01:16;;;;;;;31.87;11.90;;;6.00;99.90;;;;;;5172719;27;20275;-85
2022/11/26 02:03:51;;;;;;;26.07;10.80;;;6.00;99.90;;;;;;5172766;27;20237;-85
2022/11/26 02:06:22;;;;;;;32.33;11.63;;;6.00;99.90;;;;;;5172270;27;20237;-84
2022/11/26 02:08:49;;;;;;;33.30;10.27;;;6.10;99.90;;;;;;5173057;27;20199;-86
2022/11/26 02:11:21;;;;;;;32.63;11.50;;;6.00;99.90;;;;;;5172630;27;20222;-86
2022/11/26 02:13:50;;;;;;;22.43;10.33;;;6.00;99.90;;;;;;5172343;27;20238;-85
2022/11/26 02:16:33;;;;;;;26.00;9.93;;;6.00;99.90;;;;;;5171067;27;20241;-84
2022/11/26 02:19:14;;;;;;;25.23;9.80;;;6.00;99.90;;;;;;5158663;27;20206;-85
2022/11/26 02:21:47;;;;;;;32.27;10.60;;;6.00;99.90;;;;;;5172455;27;20209;-86
2022/11/26 02:24:46;;;;;;;35.47;11.70;;;6.00;99.90;;;;;;5172179;27;20241;-85
2022/11/26 02:27:57;;;;;;;22.70;9.90;;;6.00;99.90;;;;;;5172061;27;20201;-84
2022/11/26 02:30:25;;;;;;;29.60;10.17;;;6.10;99.90;;;;;;5171211;27;20202;-85
2022/11/26 02:32:58;;;;;;;29.70;9.40;;;6.10;99.90;;;;;;5171865;27;20198;-83
2022/11/26 02:35:31;;;;;;;24.27;10.03;;;6.10;99.90;;;;;;5171391;27;20252;-86
2022/11/26 02:38:01;;;;;;;31.77;10.00;;;6.10;99.90;;;;;;5171855;27;20214;-85
2022/11/26 02:40:28;;;;;;;28.30;10.10;;;6.10;99.90;;;;;;5171949;27;20207;-85
2022/11/26 02:42:55;;;;;;;26.80;10.77;;;6.20;99.90;;;;;;5170870;27;20577;-85
2022/11/26 02:45:26;;;;;;;31.97;10.03;;;6.00;99.90;;;;;;5171808;27;20202;-84
2022/11/26 02:47:56;;;;;;;26.20;9.90;;;6.00;99.90;;;;;;5170998;27;20197;-84
2022/11/26 02:50:27;;;;;;;32.40;10.60;;;6.00;99.90;;;;;;5170911;27;20203;-86
2022/11/26 02:52:56;;;;;;;25.07;9.70;;;6.00;99.90;;;;;;5171613;27;20214;-84
2022/11/26 02:55:27;;;;;;;33.03;10.10;;;6.00;99.90;;;;;;5171481;27;20226;-85
2022/11/26 02:57:55;;;;;;;25.50;10.60;;;6.00;99.90;;;;;;5170363;27;20195;-85
2022/11/26 03:00:22;;;;;;;31.00;10.40;;;6.00;99.90;;;;;;5170296;27;20202;-85
2022/11/26 03:03:00;;;;;;;26.10;10.60;;;6.00;99.90;;;;;;5170023;27;20202;-84
2022/11/26 03:05:34;;;;;;;39.13;12.13;;;6.00;99.90;;;;;;5168458;27;20421;-84
2022/11/26 03:08:02;;;;;;;35.27;11.40;;;6.00;99.90;;;;;;5156282;27;20199;-84
2022/11/26 03:10:30;;;;;;;35.47;10.27;;;6.00;99.90;;;;;;5156649;27;20210;-84
2022/11/26 03:12:57;;;;;;;28.47;9.80;;;5.90;99.90;;;;;;5156713;27;20199;-85
2022/11/26 03:15:25;;;;;;;35.80;10.20;;;5.90;99.90;;;;;;5157336;27;20233;-86
2022/11/26 03:17:52;;;;;;;29.90;9.60;;;5.90;99.90;;;;;;5157275;27;20207;-84
2022/11/26 03:20:21;;;;;;;30.97;10.03;;;5.90;99.90;;;;;;5155746;27;20206;-85
2022/11/26 03:22:48;;;;;;;30.10;9.40;;;5.90;99.90;;;;;;5157460;27;20207;-86
2022/11/26 03:25:15;;;;;;;35.63;11.00;;;5.90;99.90;;;;;;5157472;27;20680;-83
2022/11/26 03:27:42;;;;;;;31.27;9.97;;;5.90;99.90;;;;;;5157296;27;20221;-84
2022/11/26 03:30:09;;;;;;;31.10;9.20;;;5.90;99.90;;;;;;5157260;27;20199;-86
2022/11/26 03:32:36;;;;;;;17.80;8.50;;;6.00;99.90;;;;;;5156816;27;20195;-86
2022/11/26 03:35:04;;;;;;;34.72;12.30;;;6.00;99.90;;;;;;5156552;27;20452;-86
2022/11/26 03:37:32;;;;;;;39.53;11.00;;;6.10;99.90;;;;;;5157389;27;20202;-86
2022/11/26 03:39:59;;;;;;;25.37;8.90;;;6.10;99.90;;;;;;5157280;27;20196;-85
2022/11/26 03:42:26;;;;;;;28.67;10.07;;;6.00;99.90;;;;;;5157136;27;20203;-85
2022/11/26 03:44:54;;;;;;;26.97;9.63;;;6.00;99.90;;;;;;5156659;27;20203;-85
2022/11/26 03:47:21;;;;;;;29.47;9.87;;;6.00;99.90;;;;;;5156625;27;20608;-85
2022/11/26 03:49:48;;;;;;;29.07;9.40;;;6.00;99.90;;;;;;5155526;27;20195;-83
2022/11/26 03:52:15;;;;;;;36.03;9.73;;;6.00;99.90;;;;;;5156738;27;20227;-86
2022/11/26 03:54:43;;;;;;;32.70;9.63;;;6.10;99.90;;;;;;5155975;27;20227;-84
2022/11/26 03:57:09;;;;;;;29.67;8.47;;;6.10;99.90;;;;;;5156047;27;20210;-82
2022/11/26 03:59:37;;;;;;;26.27;8.87;;;6.00;99.90;;;;;;5155723;27;20195;-85
2022/11/26 04:02:05;;;;;;;26.27;9.13;;;6.10;99.90;;;;;;5155710;27;20206;-84
2022/11/26 04:04:32;;;;;;;29.93;9.27;;;6.00;99.90;;;;;;5155939;27;20199;-83
2022/11/26 04:07:05;;;;;;;35.17;9.33;;;6.10;99.90;;;;;;5156439;27;20661;-84
2022/11/26 04:09:32;;;;;;;30.63;9.03;;;6.00;99.90;;;;;;5156157;27;20216;-85
2022/11/26 04:12:00;;;;;;;33.30;9.40;;;6.00;99.90;;;;;;5156541;27;20654;-82
2022/11/26 04:14:27;;;;;;;21.97;8.60;;;6.00;99.90;;;;;;5155956;27;20206;-86
2022/11/26 04:16:54;;;;;;;34.83;8.83;;;6.00;99.90;;;;;;5151501;27;20212;-83
2022/11/26 04:19:20;;;;;;;30.43;10.27;;;6.00;99.90;;;;;;5143725;27;20199;-83
2022/11/26 04:21:47;;;;;;;33.50;10.43;;;6.00;99.90;;;;;;5156002;27;20217;-86
2022/11/26 04:24:14;;;;;;;27.03;7.93;;;6.00;99.90;;;;;;5155652;27;20214;-83
2022/11/26 04:26:41;;;;;;;31.07;9.57;;;6.00;99.90;;;;;;5154415;27;20207;-83
2022/11/26 04:29:09;;;;;;;28.17;8.53;;;6.10;99.90;;;;;;5154097;27;20692;-84
2022/11/26 04:31:36;;;;;;;29.00;8.37;;;5.90;99.90;;;;;;5156144;27;20203;-84
2022/11/26 04:34:03;;;;;;;34.40;8.67;;;5.90;99.90;;;;;;5154575;27;20203;-85
2022/11/26 04:36:29;;;;;;;22.97;8.13;;;6.00;99.90;;;;;;5155313;27;20620;-86
2022/11/26 04:38:57;;;;;;;24.23;7.33;;;6.00;99.90;;;;;;5155780;27;20570;-85
2022/11/26 04:41:24;;;;;;;25.00;7.77;;;6.00;99.90;;;;;;5155224;27;20566;-84
2022/11/26 04:43:51;;;;;;;24.27;7.57;;;6.00;99.90;;;;;;5153640;27;20206;-85
2022/11/26 04:46:19;;;;;;;27.03;8.03;;;6.00;99.90;;;;;;5155661;27;20209;-84
2022/11/26 04:48:46;;;;;;;27.53;7.70;;;6.00;99.90;;;;;;5154668;27;20230;-83
2022/11/26 04:51:12;;;;;;;29.70;8.17;;;6.00;99.90;;;;;;5155295;27;20556;-86
2022/11/26 04:53:39;;;;;;;25.27;7.57;;;5.90;99.90;;;;;;5155701;27;20271;-86
2022/11/26 04:56:06;;;;;;;25.73;7.23;;;5.90;99.90;;;;;;5155280;27;20233;-86
2022/11/26 04:58:33;;;;;;;27.60;8.07;;;5.90;99.90;;;;;;5155382;27;20195;-85
2022/11/26 05:01:00;;;;;;;26.27;8.13;;;5.90;99.90;;;;;;5155288;27;20225;-84
2022/11/26 05:03:28;;;;;;;27.07;7.77;;;5.90;99.90;;;;;;5155288;27;20194;-83
2022/11/26 05:05:55;;;;;;;26.67;8.17;;;6.00;99.90;;;;;;5153611;27;20244;-84
2022/11/26 05:08:22;;;;;;;25.00;7.67;;;6.00;99.90;;;;;;5154563;27;20559;-84
2022/11/26 05:10:53;;;;;;;22.77;7.37;;;5.90;99.90;;;;;;5154577;27;20206;-86
2022/11/26 05:13:20;;;;;;;18.23;7.37;;;5.90;99.90;;;;;;5140862;27;20290;-84
2022/11/26 05:15:47;;;;;;;26.73;7.63;;;5.90;99.90;;;;;;5154823;27;20227;-84
2022/11/26 05:18:13;;;;;;;31.70;7.30;;;5.90;99.90;;;;;;5140691;27;20199;-86
2022/11/26 05:20:42;;;;;;;27.23;7.40;;;5.90;99.90;;;;;;5155334;27;20207;-87
2022/11/26 05:23:09;;;;;;;28.70;7.27;;;6.00;99.90;;;;;;5154793;27;20210;-85
2022/11/26 05:25:35;;;;;;;24.77;7.93;;;6.00;99.90;;;;;;5154562;27;20579;-85
2022/11/26 05:28:02;;;;;;;25.70;7.33;;;5.90;99.90;;;;;;5154981;27;20202;-86
2022/11/26 05:30:29;;;;;;;22.13;7.10;;;5.90;99.90;;;;;;5154584;27;20431;-83
2022/11/26 05:32:57;;;;;;;27.07;8.43;;;5.90;99.90;;;;;;5154767;27;20570;-84
2022/11/26 05:35:24;;;;;;;25.27;7.87;;;6.00;99.90;;;;;;5154447;27;20259;-86
2022/11/26 05:37:52;;;;;;;20.97;7.30;;;5.90;99.90;;;;;;5155352;27;20206;-85
2022/11/26 05:40:19;;;;;;;20.77;7.30;;;5.90;99.90;;;;;;5155348;27;20557;-85
2022/11/26 05:42:45;;;;;;;23.80;7.23;;;5.90;99.90;;;;;;5154783;27;20200;-85
2022/11/26 05:45:12;;;;;;;32.03;7.70;;;6.00;99.90;;;;;;5154484;27;20199;-84
2022/11/26 05:47:39;;;;;;;23.90;7.73;;;5.90;99.90;;;;;;5154923;27;20192;-84
2022/11/26 05:50:08;;;;;;;20.97;7.53;;;6.00;99.90;;;;;;5153395;27;20202;-83
2022/11/26 05:52:35;;;;;;;21.93;6.83;;;5.90;99.90;;;;;;5154264;27;20219;-85
2022/11/26 05:55:03;;;;;;;19.63;7.07;;;6.00;99.90;;;;;;5153555;27;20209;-83
2022/11/26 05:57:30;;;;;;;23.20;7.47;;;6.00;99.90;;;;;;5153514;27;20206;-85
2022/11/26 05:59:57;;;;;;;26.47;8.50;;;6.10;99.90;;;;;;5154362;27;20565;-85
2022/11/26 06:02:23;;;;;;;27.57;7.43;;;6.00;99.90;;;;;;5153903;27;20206;-83
2022/11/26 06:04:50;;;;;;;25.10;8.00;;;6.00;99.90;;;;;;5154446;27;20222;-87
2022/11/26 06:07:17;;;;;;;28.17;7.47;;;6.00;99.90;;;;;;5154314;27;20582;-86
2022/11/26 06:09:44;;;;;;;27.07;7.70;;;5.90;99.90;;;;;;5154635;27;20195;-85
2022/11/26 06:12:12;;;;;;;27.13;7.60;;;5.90;99.90;;;;;;5154450;27;20203;-86
2022/11/26 06:14:39;;;;;;;21.73;7.53;;;5.90;99.90;;;;;;5153490;27;20662;-85
2022/11/26 06:17:06;;;;;;;23.73;8.43;;;5.90;99.90;;;;;;5148470;27;20321;-85
2022/11/26 06:19:32;;;;;;;23.13;8.13;;;5.90;99.90;;;;;;5142327;27;20206;-84
2022/11/26 06:21:59;;;;;;;28.30;8.63;;;6.00;99.90;;;;;;5151462;27;20211;-83
2022/11/26 06:24:26;;;;;;;26.20;8.03;;;6.00;99.90;;;;;;5142248;27;20596;-85
2022/11/26 06:26:54;;;;;;;25.83;8.00;;;6.00;99.90;;;;;;5144642;27;20200;-85
2022/11/26 06:29:22;;;;;;;22.57;7.00;;;6.00;99.90;;;;;;5148028;27;20585;-84
2022/11/26 06:31:50;;;;;;;29.17;7.50;;;5.90;99.90;;;;;;5153831;27;20199;-84
2022/11/26 06:34:17;;;;;;;21.80;7.70;;;5.80;99.90;;;;;;5154366;27;20206;-84
2022/11/26 06:36:44;;;;;;;30.53;8.47;;;5.90;99.90;;;;;;5138080;27;20243;-85
2022/11/26 06:39:11;;;;;;;30.70;8.17;;;5.90;99.90;;;;;;5153885;27;20203;-82
2022/11/26 06:41:38;;;;;;;24.00;7.97;;;6.00;99.90;;;;;;5155185;27;20187;-84
2022/11/26 06:44:05;;;;;;;22.90;7.77;;;5.90;99.90;;;;;;5157399;27;20649;-86
2022/11/26 06:46:34;;;;;;;23.23;7.83;;;6.00;99.90;;;;;;5156499;27;20200;-86
2022/11/26 06:49:02;;;;;;;26.70;8.27;;;6.00;99.90;;;;;;5157382;27;20207;-82
2022/11/26 06:51:29;;;;;;;25.70;8.07;;;6.00;99.90;;;;;;5155924;27;20672;-84
2022/11/26 06:53:55;;;;;;;23.30;7.50;;;5.90;99.90;;;;;;5143233;27;20222;-85
2022/11/26 06:56:22;;;;;;;21.07;7.67;;;6.00;99.90;;;;;;5156441;27;20227;-85
2022/11/26 06:58:50;;;;;;;25.13;7.47;;;5.90;99.90;;;;;;5158289;27;20195;-85
2022/11/26 07:01:19;;;;;;;22.00;8.23;;;5.80;99.90;;;;;;5157862;27;20195;-83
2022/11/26 07:03:47;;;;;;;28.03;7.77;;;6.00;99.90;;;;;;5156466;27;20214;-83
2022/11/26 07:06:19;;;;;;;22.77;8.17;;;6.00;99.90;;;;;;5157455;27;20210;-84
2022/11/26 07:08:47;;;;;;;24.07;7.73;;;6.10;99.90;;;;;;5157179;27;20222;-85
2022/11/26 07:11:14;;;;;;;31.83;7.83;;;6.10;99.90;;;;;;5157952;27;20203;-85
2022/11/26 07:13:42;;;;;;;15.20;7.10;;;6.20;99.90;;;;;;5157014;27;20203;-84
2022/11/26 07:16:08;;;;;;;23.17;7.97;;;6.20;99.90;;;;;;5157456;27;20226;-85
2022/11/26 07:18:35;;;;;;;28.83;8.00;;;6.20;99.90;;;;;;5157262;27;20199;-83
2022/11/26 07:21:08;;;;;;;20.87;8.07;;;6.10;99.90;;;;;;5156210;27;20203;-84
2022/11/26 07:23:35;;;;;;;27.20;7.53;;;6.20;99.90;;;;;;5157070;27;20205;-85
2022/11/26 07:26:03;;;;;;;17.97;8.30;;;6.20;99.90;;;;;;5153944;27;20578;-85
2022/11/26 07:28:30;;;;;;;30.80;11.15;;;6.20;99.90;;;;;;5145783;27;20421;-86
2022/11/26 07:31:01;;;;;;;27.00;8.97;;;6.30;99.90;;;;;;5156616;27;20572;-86
2022/11/26 07:33:28;;;;;;;19.40;7.60;;;6.40;99.90;;;;;;5156965;27;20276;-86
2022/11/26 07:35:59;;;;;;;20.57;7.97;;;6.50;99.90;;;;;;5156647;27;20215;-86
2022/11/26 07:38:27;;;;;;;23.47;7.70;;;6.40;99.90;;;;;;5156446;27;20207;-84
2022/11/26 07:41:02;;;;;;;21.53;7.30;;;6.40;99.90;;;;;;5155796;27;20199;-86
2022/11/26 07:43:29;;;;;;;16.50;8.37;;;6.40;99.90;;;;;;5157318;27;20201;-85
2022/11/26 07:45:56;;;;;;;27.83;8.63;;;6.50;99.90;;;;;;5156219;27;20215;-81
2022/11/26 07:48:22;;;;;;;22.77;7.97;;;6.50;99.90;;;;;;5156311;27;20195;-86
2022/11/26 07:50:49;;;;;;;25.07;8.37;;;6.50;99.90;;;;;;5156009;27;20206;-85
2022/11/26 07:53:16;;;;;;;21.70;7.97;;;6.60;99.90;;;;;;5156497;27;20221;-84
2022/11/26 07:55:44;;;;;;;25.67;8.77;;;6.50;99.90;;;;;;5156753;27;20214;-86
2022/11/26 07:58:11;;;;;;;31.70;11.40;;;6.50;99.90;;;;;;5155707;27;20425;-83
2022/11/26 08:00:38;;;;;;;28.10;8.67;;;6.50;99.90;;;;;;5156966;27;20198;-85
2022/11/26 08:03:05;;;;;;;25.57;8.13;;;6.70;99.90;;;;;;5155700;27;20205;-85
2022/11/26 08:05:32;;;;;;;18.20;8.03;;;6.80;99.90;;;;;;5156237;27;20210;-85
2022/11/26 08:07:58;;;;;;;21.57;8.30;;;6.70;99.90;;;;;;5155039;27;20294;-85
2022/11/26 08:10:25;;;;;;;24.03;9.60;;;6.80;99.90;;;;;;5156487;27;20198;-85
2022/11/26 08:12:53;;;;;;;21.23;8.47;;;6.80;99.90;;;;;;5156753;27;20199;-85
2022/11/26 08:15:20;;;;;;;27.53;8.03;;;6.60;99.90;;;;;;5156613;27;20188;-85
2022/11/26 08:17:47;;;;;;;25.50;7.97;;;6.60;99.90;;;;;;5156748;27;20223;-84
2022/11/26 08:20:14;;;;;;;24.70;8.20;;;6.70;99.90;;;;;;5155282;27;20192;-85
2022/11/26 08:22:41;;;;;;;31.57;8.80;;;6.80;99.90;;;;;;5156971;27;20642;-85
2022/11/26 08:25:09;;;;;;;19.03;7.27;;;6.90;99.90;;;;;;5156670;27;20202;-86
2022/11/26 08:27:37;;;;;;;32.23;8.20;;;6.90;99.90;;;;;;5152995;27;20199;-85
2022/11/26 08:30:07;;;;;;;25.47;7.63;;;7.00;99.90;;;;;;5156591;27;20203;-84
2022/11/26 08:32:34;;;;;;;20.80;7.90;;;7.10;99.90;;;;;;5156631;27;20203;-86
2022/11/26 08:35:02;;;;;;;28.33;8.13;;;7.10;99.90;;;;;;5155867;27;20199;-86
2022/11/26 08:37:29;;;;;;;23.43;7.80;;;7.10;99.90;;;;;;5155969;27;20226;-85
2022/11/26 08:39:55;;;;;;;23.80;8.30;;;7.20;99.90;;;;;;5156131;27;20195;-85
2022/11/26 08:42:22;;;;;;;24.53;7.90;;;7.20;99.90;;;;;;5156219;27;20210;-85
2022/11/26 08:44:50;;;;;;;24.80;8.37;;;7.40;99.90;;;;;;5156213;27;20201;-86
2022/11/26 08:47:18;;;;;;;25.17;8.20;;;7.40;99.90;;;;;;5155658;27;20195;-85
2022/11/26 08:49:47;;;;;;;21.23;8.17;;;7.40;99.90;;;;;;5154670;27;20199;-84
2022/11/26 08:52:14;;;;;;;24.90;8.43;;;7.50;99.90;;;;;;5150028;27;20248;-84
2022/11/26 08:54:41;;;;;;;21.43;8.40;;;7.50;99.90;;;;;;5153675;27;20207;-84
2022/11/26 08:57:07;;;;;;;24.23;8.07;;;7.70;99.90;;;;;;5153323;27;20237;-85
2022/11/26 08:59:34;;;;;;;20.43;8.50;;;7.70;99.90;;;;;;5153331;27;20191;-84
2022/11/26 09:02:01;;;;;;;22.97;7.53;;;7.70;99.90;;;;;;5148036;27;21649;-83
2022/11/26 09:04:30;;;;;;;27.87;8.47;;;7.60;99.90;;;;;;5145472;27;20199;-84
2022/11/26 09:06:57;;;;;;;19.77;7.53;;;7.60;99.90;;;;;;5143066;27;20199;-84
2022/11/26 09:09:24;;;;;;;21.27;8.03;;;7.70;99.90;;;;;;5149972;27;20231;-85
2022/11/26 09:11:53;;;;;;;19.13;7.60;;;7.80;99.90;;;;;;5146199;27;20646;-84
2022/11/26 09:14:23;;;;;;;26.73;8.13;;;7.80;99.90;;;;;;5152520;27;20564;-84
2022/11/26 09:16:50;;;;;;;17.97;6.87;;;7.80;99.90;;;;;;5153151;27;20360;-82
2022/11/26 09:19:18;;;;;;;18.93;8.00;;;7.70;99.90;;;;;;5151402;27;20202;-83
2022/11/26 09:21:47;;;;;;;17.50;6.73;;;7.70;99.90;;;;;;5154112;27;20194;-82
2022/11/26 09:24:15;;;;;;;19.23;7.37;;;7.70;99.90;;;;;;5154153;27;21569;-83
2022/11/26 09:26:42;;;;;;;20.80;7.73;;;7.90;99.90;;;;;;5151584;27;20256;-84
2022/11/26 09:29:12;;;;;;;22.47;7.23;;;7.90;99.90;;;;;;5154589;27;20198;-82
2022/11/26 09:31:39;;;;;;;28.00;6.83;;;7.90;99.90;;;;;;5154898;27;20207;-82
2022/11/26 09:34:06;;;;;;;16.57;6.93;;;7.90;99.90;;;;;;5153830;27;20202;-83
2022/11/26 09:36:33;;;;;;;22.40;7.60;;;7.90;99.90;;;;;;5153300;27;20219;-84
2022/11/26 09:39:01;;;;;;;21.17;7.00;;;8.00;99.90;;;;;;5154037;27;20191;-84
2022/11/26 09:41:41;;;;;;;22.57;7.33;;;8.00;99.90;;;;;;5154121;27;20202;-84
2022/11/26 09:44:19;;;;;;;25.17;6.70;;;8.00;99.90;;;;;;5154970;27;20186;-84
2022/11/26 09:46:53;;;;;;;20.27;7.07;;;8.10;99.90;;;;;;5154245;27;20230;-83
2022/11/26 09:49:20;;;;;;;20.47;7.20;;;8.10;99.90;;;;;;5153891;27;20653;-84
2022/11/26 09:51:52;;;;;;;19.37;7.40;;;8.20;99.90;;;;;;5153056;27;20179;-86
2022/11/26 09:54:23;;;;;;;25.23;7.20;;;8.30;99.90;;;;;;5152532;27;20279;-83
2022/11/26 09:56:54;;;;;;;23.47;7.67;;;8.40;99.90;;;;;;5152122;27;20226;-87
2022/11/26 09:59:24;;;;;;;20.87;7.20;;;8.40;99.90;;;;;;5152886;27;20207;-88
2022/11/26 10:01:51;;;;;;;14.90;6.50;;;8.40;99.90;;;;;;5153494;27;20220;-87
2022/11/26 10:04:23;;;;;;;22.33;7.40;;;8.40;99.90;;;;;;5153758;27;20205;-88
2022/11/26 10:06:59;;;;;;;19.17;7.33;;;8.50;99.90;;;;;;5155297;27;20187;-89
2022/11/26 10:09:43;;;;;;;16.53;6.00;;;8.60;99.90;;;;;;5155287;27;20218;-88
2022/11/26 10:12:22;;;;;;;20.00;7.60;;;8.70;99.90;;;;;;5154521;27;20206;-88
2022/11/26 10:14:56;;;;;;;19.57;6.57;;;8.70;99.90;;;;;;5155244;27;20199;-88
2022/11/26 10:17:33;;;;;;;20.93;7.03;;;8.70;99.90;;;;;;5157658;27;20230;-88
2022/11/26 10:20:23;;;;;;;17.60;6.80;;;8.70;99.90;;;;;;5159227;27;20187;-88
2022/11/26 10:22:54;;;;;;;19.10;6.93;;;8.80;99.90;;;;;;5158946;27;20206;-88
2022/11/26 10:25:28;;;;;;;19.27;6.77;;;8.90;99.90;;;;;;5159258;27;20198;-88
2022/11/26 10:27:56;;;;;;;24.00;6.20;;;9.00;99.90;;;;;;5158818;27;20214;-88
2022/11/26 10:30:25;;;;;;;18.33;6.50;;;8.90;99.90;;;;;;5159076;27;20195;-88
2022/11/26 10:32:54;;;;;;;17.43;6.70;;;8.90;99.90;;;;;;5158888;27;20217;-88
2022/11/26 10:35:23;;;;;;;19.63;6.60;;;9.00;99.90;;;;;;5159033;27;20203;-88
2022/11/26 10:37:50;;;;;;;17.50;6.77;;;9.10;99.90;;;;;;5158335;27;20700;-87
2022/11/26 10:40:23;;;;;;;20.87;6.37;;;9.10;99.90;;;;;;5158782;27;20202;-86
2022/11/26 10:43:02;;;;;;;20.07;6.13;;;9.20;99.90;;;;;;5158952;27;20203;-87
2022/11/26 10:45:37;;;;;;;21.23;6.63;;;9.40;99.90;;;;;;5158894;27;20685;-86
2022/11/26 10:48:22;;;;;;;17.67;5.53;;;9.40;99.90;;;;;;5158202;27;20294;-86
2022/11/26 10:51:01;;;;;;;17.90;7.38;;;9.40;99.90;;;;;;5158361;27;20912;-87
2022/11/26 10:53:30;;;;;;;18.07;6.37;;;9.50;99.90;;;;;;5158540;27;20226;-86
2022/11/26 10:55:59;;;;;;;17.00;6.00;;;9.50;99.90;;;;;;5158336;27;20213;-86
2022/11/26 10:58:31;;;;;;;16.83;5.40;;;9.50;99.90;;;;;;5158391;27;20241;-85
2022/11/26 11:01:01;;;;;;;15.93;5.77;;;9.50;99.90;;;;;;5157812;27;20615;-86
2022/11/26 11:03:33;;;;;;;20.43;6.10;;;9.50;99.90;;;;;;5158416;27;20206;-88
2022/11/26 11:06:26;;;;;;;21.50;6.93;;;9.50;99.90;;;;;;5158461;27;20187;-86
2022/11/26 11:08:54;;;;;;;13.50;5.53;;;9.60;99.90;;;;;;5158421;27;20202;-87
2022/11/26 11:11:22;;;;;;;19.17;6.50;;;9.70;99.90;;;;;;5158142;27;20256;-87
2022/11/26 11:13:51;;;;;;;15.27;5.63;;;9.70;99.90;;;;;;5158165;27;20187;-87
2022/11/26 11:16:25;;;;;;;12.03;5.37;;;9.80;99.90;;;;;;5157670;27;20654;-86
2022/11/26 11:18:55;;;;;;;16.37;5.47;;;9.80;99.90;;;;;;5157848;27;20258;-87
2022/11/26 11:21:27;;;;;;;17.77;7.03;;;9.80;99.90;;;;;;5156633;27;20466;-87
2022/11/26 11:24:07;;;;;;;16.17;5.87;;;9.80;99.90;;;;;;5158909;27;20199;-88
2022/11/26 11:26:41;;;;;;;17.43;7.63;;;9.90;99.90;;;;;;5157887;27;20187;-88
2022/11/26 11:29:26;;;;;;;14.23;5.67;;;9.90;99.90;;;;;;5158368;27;20190;-88
2022/11/26 11:31:54;;;;;;;10.37;5.03;;;10.00;99.90;;;;;;5157537;27;20290;-88
2022/11/26 11:34:23;;;;;;;17.13;5.00;;;10.10;99.90;;;;;;5157874;27;20256;-88
2022/11/26 11:37:02;;;;;;;16.93;5.47;;;10.30;99.90;;;;;;5158076;27;20208;-88
2022/11/26 11:39:30;;;;;;;15.23;5.20;;;10.40;99.90;;;;;;5157918;27;20200;-88
2022/11/26 11:41:58;;;;;;;19.87;6.63;;;10.30;99.90;;;;;;5157643;27;20196;-88
2022/11/26 11:44:36;;;;;;;19.03;6.03;;;10.30;99.90;;;;;;5157308;27;20192;-85
2022/11/26 11:47:17;;;;;;;12.90;5.67;;;10.30;99.90;;;;;;5157775;27;20199;-85
2022/11/26 11:49:54;;;;;;;24.35;7.47;;;10.30;99.90;;;;;;5156123;27;20428;-85
2022/11/26 11:52:34;;;;;;;14.73;5.20;;;10.40;99.90;;;;;;5157143;27;20221;-85
2022/11/26 11:55:13;;;;;;;20.83;6.27;;;10.30;99.90;;;;;;5156729;27;20663;-85
2022/11/26 11:58:11;;;;;;;17.00;5.13;;;10.30;99.90;;;;;;5157265;27;20241;-85
2022/11/26 12:00:48;;;;;;;19.93;5.33;;;10.20;99.90;;;;;;5156656;27;20215;-85
2022/11/26 12:03:48;;;;;;;15.87;5.17;;;10.10;99.90;;;;;;5156962;27;20289;-85
2022/11/26 12:06:25;;;;;;;17.70;5.30;;;10.20;99.90;;;;;;5129471;27;20205;-85
2022/11/26 12:09:01;;;;;;;13.27;5.33;;;10.20;99.90;;;;;;5156807;27;20645;-85
2022/11/26 12:11:38;;;;;;;12.97;4.63;;;10.30;99.90;;;;;;5156887;27;20680;-85
2022/11/26 12:14:12;;;;;;;14.23;5.03;;;10.40;99.90;;;;;;5156232;27;21008;-85
2022/11/26 12:16:44;;;;;;;15.53;5.00;;;10.50;99.90;;;;;;5156898;27;20189;-85
2022/11/26 12:19:27;;;;;;;17.00;4.33;;;10.50;99.90;;;;;;5156950;27;20218;-85
2022/11/26 12:22:00;;;;;;;17.33;4.87;;;10.50;99.90;;;;;;5156765;27;20218;-86
2022/11/26 12:24:38;;;;;;;11.90;4.83;;;10.40;99.90;;;;;;5156470;27;20214;-85
2022/11/26 12:27:14;;;;;;;14.67;4.43;;;10.40;99.90;;;;;;5156401;27;20225;-85
2022/11/26 12:29:45;;;;;;;19.63;5.30;;;10.50;99.90;;;;;;5156222;27;20183;-85
2022/11/26 12:32:17;;;;;;;16.43;4.77;;;10.50;99.90;;;;;;5156472;27;20211;-85
2022/11/26 12:34:48;;;;;;;14.83;5.10;;;10.50;99.90;;;;;;5156247;27;20205;-85
2022/11/26 12:37:20;;;;;;;18.93;5.37;;;10.60;99.90;;;;;;5156053;27;20271;-85
2022/11/26 12:39:51;;;;;;;21.73;5.33;;;10.80;99.90;;;;;;5155360;27;20200;-85
2022/11/26 12:42:25;;;;;;;25.17;5.77;;;11.00;99.90;;;;;;5155937;27;20208;-85
2022/11/26 12:44:53;;;;;;;13.17;5.40;;;11.00;99.90;;;;;;5156083;27;20215;-84
2022/11/26 12:47:28;;;;;;;19.17;5.80;;;11.00;99.90;;;;;;5155096;27;20417;-85
2022/11/26 12:50:06;;;;;;;25.73;6.03;;;11.00;99.90;;;;;;5155911;27;20647;-84
2022/11/26 12:52:40;;;;;;;13.57;4.33;;;11.10;99.90;;;;;;5155981;27;20242;-85
2022/11/26 12:55:17;;;;;;;20.73;4.73;;;11.10;99.90;;;;;;5155956;27;20212;-85
2022/11/26 12:57:48;;;;;;;18.97;4.80;;;11.10;99.90;;;;;;5155396;27;20228;-84